createdAt,value
2018-07-17T00:02:32.378Z,23.40
2018-07-17T00:07:37.291Z,23.50
2018-07-17T00:12:41.798Z,23.40
2018-07-17T00:17:46.387Z,23.40
2018-07-17T00:22:51.295Z,23.40
2018-07-17T00:27:56.018Z,23.30
2018-07-17T00:33:00.522Z,23.20
2018-07-17T00:38:04.868Z,23.10
2018-07-17T00:43:09.000Z,23.20
2018-07-17T00:48:13.432Z,23.00
2018-07-17T00:53:17.993Z,23.10
2018-07-17T00:58:22.964Z,22.80
2018-07-17T01:03:32.645Z,22.80
2018-07-17T01:08:42.621Z,23.00
2018-07-17T01:13:55.379Z,22.90
2018-07-17T01:19:00.033Z,22.90
2018-07-17T01:24:04.370Z,22.90
2018-07-17T01:29:09.025Z,23.00
2018-07-17T01:34:13.495Z,22.80
2018-07-17T01:39:18.037Z,22.50
2018-07-17T01:44:23.437Z,22.70
2018-07-17T01:49:28.511Z,22.70
2018-07-17T01:54:33.080Z,22.70
2018-07-17T01:59:37.546Z,22.70
2018-07-17T02:04:42.096Z,22.70
2018-07-17T02:09:46.519Z,22.80
2018-07-17T02:14:51.254Z,22.90
2018-07-17T02:19:56.228Z,22.80
2018-07-17T02:25:01.046Z,22.80
2018-07-17T02:30:05.879Z,22.80
2018-07-17T02:35:10.357Z,22.80
2018-07-17T02:40:14.925Z,22.60
2018-07-17T02:50:23.937Z,22.70
2018-07-17T02:55:28.973Z,22.60
2018-07-17T03:00:33.606Z,22.40
2018-07-17T03:05:38.081Z,22.40
2018-07-17T03:10:42.624Z,22.30
2018-07-17T03:15:47.522Z,22.20
2018-07-17T03:20:52.336Z,22.20
2018-07-17T03:25:57.629Z,22.20
2018-07-17T03:31:02.127Z,22.10
2018-07-17T03:36:06.780Z,22.10
2018-07-17T03:41:11.469Z,21.90
2018-07-17T04:02:03.126Z,21.90
2018-07-17T04:07:07.237Z,22.10
2018-07-17T04:12:11.599Z,21.90
2018-07-17T04:17:15.696Z,22.00
2018-07-17T04:22:21.222Z,21.90
2018-07-17T04:27:25.518Z,22.10
2018-07-17T04:32:30.148Z,22.10
2018-07-17T04:37:34.179Z,22.10
2018-07-17T04:42:38.575Z,22.40
2018-07-17T04:47:42.654Z,22.80
2018-07-17T04:52:47.427Z,23.20
2018-07-17T04:57:51.721Z,23.40
2018-07-17T05:02:55.921Z,23.60
2018-07-17T05:08:00.355Z,23.50
2018-07-17T05:13:04.656Z,24.00
2018-07-17T05:18:08.930Z,23.90
2018-07-17T05:25:27.642Z,24.10
2018-07-17T05:30:32.212Z,24.20
2018-07-17T05:35:36.792Z,24.30
2018-07-17T05:45:45.304Z,24.50
2018-07-17T05:50:50.900Z,24.90
2018-07-17T05:55:55.563Z,25.20
2018-07-17T06:01:00.057Z,25.50
2018-07-17T06:06:04.501Z,25.80
2018-07-17T06:11:09.014Z,25.80
2018-07-17T06:16:13.181Z,26.10
2018-07-17T06:21:17.407Z,26.60
2018-07-17T06:26:22.417Z,26.70
2018-07-17T06:31:27.163Z,26.40
2018-07-17T06:36:31.703Z,26.40
2018-07-17T06:41:36.234Z,26.60
2018-07-17T06:46:40.823Z,26.90
2018-07-17T06:51:45.201Z,26.60
2018-07-17T06:56:49.490Z,26.80
2018-07-17T07:01:54.084Z,26.80
2018-07-17T07:06:58.847Z,27.00
2018-07-17T07:12:04.315Z,26.80
2018-07-17T07:17:08.851Z,27.00
2018-07-17T07:22:13.390Z,26.80
2018-07-17T07:27:19.362Z,27.00
2018-07-17T07:32:24.127Z,27.20
2018-07-17T07:37:28.765Z,27.20
2018-07-17T07:42:33.045Z,27.00
2018-07-17T07:47:37.189Z,27.00
2018-07-17T07:52:41.718Z,27.00
2018-07-17T07:57:46.090Z,26.90
2018-07-17T08:02:50.680Z,27.00
2018-07-17T08:07:55.541Z,27.10
2018-07-17T08:13:00.077Z,27.30
2018-07-17T08:18:04.284Z,27.30
2018-07-17T08:23:09.097Z,27.10
2018-07-17T08:28:13.392Z,27.20
2018-07-17T08:33:18.108Z,27.30
2018-07-17T08:38:23.119Z,27.20
2018-07-17T08:43:28.780Z,27.30
2018-07-17T08:48:32.834Z,27.00
2018-07-17T08:53:37.578Z,27.10
2018-07-17T08:58:41.745Z,27.20
2018-07-17T09:03:46.121Z,27.30
2018-07-17T09:08:51.386Z,27.30
2018-07-17T09:13:55.967Z,27.30
2018-07-17T09:19:00.832Z,27.40
2018-07-17T09:24:05.232Z,27.10
2018-07-17T09:29:09.601Z,27.20
2018-07-17T09:34:13.746Z,27.20
2018-07-17T09:39:20.870Z,27.20
2018-07-17T09:44:25.553Z,27.20
2018-07-17T09:49:29.854Z,27.10
2018-07-17T09:54:33.971Z,27.30
2018-07-17T09:59:38.212Z,27.30
2018-07-17T10:04:42.549Z,27.20
2018-07-17T10:09:47.096Z,27.30
2018-07-17T10:14:51.656Z,26.90
2018-07-17T10:19:56.155Z,26.60
2018-07-17T10:25:00.853Z,26.50
2018-07-17T10:30:04.994Z,26.40
2018-07-17T10:35:09.468Z,26.40
2018-07-17T10:40:13.558Z,26.40
2018-07-17T10:45:18.018Z,26.40
2018-07-17T10:50:22.230Z,26.40
2018-07-17T10:55:26.515Z,26.40
2018-07-17T11:00:30.755Z,26.40
2018-07-17T11:05:34.859Z,26.30
2018-07-17T11:10:39.253Z,26.40
2018-07-17T11:15:43.654Z,26.40
2018-07-17T11:20:48.371Z,26.20
2018-07-17T11:25:53.011Z,26.30
2018-07-17T11:30:58.170Z,26.20
2018-07-17T11:36:02.263Z,26.10
2018-07-17T11:41:06.501Z,26.10
2018-07-17T11:46:10.941Z,25.90
2018-07-17T11:51:17.710Z,25.80
2018-07-17T11:56:23.660Z,25.70
2018-07-17T12:06:32.333Z,25.60
2018-07-17T12:11:36.699Z,25.50
2018-07-17T12:16:40.766Z,25.40
2018-07-17T12:21:45.026Z,25.40
2018-07-17T12:26:49.682Z,25.30
2018-07-17T12:31:54.051Z,25.30
2018-07-17T12:36:58.663Z,25.30
2018-07-17T12:42:03.104Z,25.30
2018-07-17T12:47:07.366Z,25.20
2018-07-17T12:52:11.545Z,25.00
2018-07-17T12:57:15.716Z,24.80
2018-07-17T13:02:20.674Z,24.80
2018-07-17T13:07:25.434Z,24.60
2018-07-17T13:12:29.797Z,24.60
2018-07-17T13:17:34.395Z,24.60
2018-07-17T13:22:38.435Z,24.50
2018-07-17T13:27:42.950Z,24.60
2018-07-17T13:32:47.924Z,24.70
2018-07-17T13:37:52.531Z,24.60
2018-07-17T13:42:57.238Z,24.70
2018-07-17T13:48:01.767Z,24.60
2018-07-17T13:53:06.162Z,24.40
2018-07-17T13:58:10.638Z,24.60
2018-07-17T14:03:15.084Z,24.50
2018-07-17T14:08:20.216Z,24.40
2018-07-17T14:13:25.350Z,24.10
2018-07-17T14:18:29.587Z,24.10
2018-07-17T14:23:34.081Z,24.00
2018-07-17T14:28:38.279Z,23.90
2018-07-17T14:33:42.847Z,23.90
2018-07-17T14:38:47.698Z,23.90
2018-07-17T14:43:52.980Z,23.90
2018-07-17T14:48:57.504Z,23.70
2018-07-17T14:54:01.667Z,23.80
2018-07-17T14:59:06.125Z,23.70
2018-07-17T15:04:10.580Z,23.80
2018-07-17T15:09:14.779Z,23.60
2018-07-17T15:14:19.651Z,23.50
2018-07-17T15:19:23.954Z,23.50
2018-07-17T15:24:28.221Z,23.30
2018-07-17T15:34:36.866Z,23.40
2018-07-17T15:44:45.085Z,23.30
2018-07-17T15:49:51.265Z,23.30
2018-07-17T15:54:55.918Z,23.30
2018-07-17T16:00:00.433Z,23.40
2018-07-17T16:05:05.178Z,23.40
2018-07-17T16:10:09.642Z,23.40
2018-07-17T16:15:13.769Z,23.40
2018-07-17T16:20:18.191Z,23.50
2018-07-17T16:25:22.868Z,23.30
2018-07-17T16:30:27.595Z,23.20
2018-07-17T16:35:31.711Z,23.30
2018-07-17T16:40:36.498Z,23.40
2018-07-17T16:45:40.974Z,23.50
2018-07-17T16:50:45.390Z,23.50
2018-07-17T16:55:50.083Z,23.30
2018-07-17T17:00:54.788Z,23.30
2018-07-17T17:05:59.009Z,23.30
2018-07-17T17:11:03.567Z,23.30
2018-07-17T17:16:07.785Z,23.30
2018-07-17T17:21:11.962Z,23.40
2018-07-17T17:26:16.111Z,23.20
2018-07-17T17:31:20.399Z,23.10
2018-07-17T17:36:25.129Z,23.00
2018-07-17T17:41:29.361Z,23.00
2018-07-17T17:46:33.554Z,23.10
2018-07-17T17:51:38.099Z,23.10
2018-07-17T17:56:42.206Z,23.10
2018-07-17T18:01:46.642Z,23.10
2018-07-17T18:06:51.225Z,23.00
2018-07-17T18:11:55.460Z,22.80
2018-07-17T18:16:59.931Z,22.80
2018-07-17T18:22:04.406Z,22.80
2018-07-17T18:27:08.954Z,22.80
2018-07-17T18:32:14.160Z,22.80
2018-07-17T18:37:18.879Z,22.80
2018-07-17T18:42:23.496Z,22.70
2018-07-17T18:47:27.956Z,22.70
2018-07-17T18:52:32.095Z,22.60
2018-07-17T18:57:36.661Z,22.60
2018-07-17T19:02:40.826Z,22.60
2018-07-17T19:07:45.317Z,22.60
2018-07-17T19:12:49.811Z,22.50
2018-07-17T19:17:54.688Z,22.50
2018-07-17T19:22:59.383Z,22.60
2018-07-17T19:28:03.953Z,22.60
2018-07-17T19:33:08.202Z,22.50
2018-07-17T19:38:12.292Z,22.60
2018-07-17T19:43:16.732Z,22.40
2018-07-17T19:48:21.411Z,22.30
2018-07-17T19:53:26.251Z,22.30
2018-07-17T19:58:30.846Z,22.10
2018-07-17T20:03:34.977Z,22.10
2018-07-17T20:08:39.432Z,22.00
2018-07-17T20:13:43.841Z,21.90
2018-07-17T20:18:48.537Z,21.90
2018-07-17T20:23:53.328Z,21.80
2018-07-17T20:28:58.437Z,21.80
2018-07-17T20:34:02.769Z,21.70
2018-07-17T20:39:08.935Z,21.70
2018-07-17T20:44:13.566Z,21.80
2018-07-17T20:49:18.342Z,21.80
2018-07-17T20:54:23.250Z,21.70
2018-07-17T20:59:27.449Z,21.60
2018-07-17T21:04:32.035Z,21.70
2018-07-17T21:14:40.323Z,21.50
2018-07-17T21:19:44.760Z,21.50
2018-07-17T21:24:49.734Z,21.50
2018-07-17T21:29:54.316Z,21.50
2018-07-17T21:34:58.594Z,21.40
2018-07-17T21:40:02.981Z,21.30
2018-07-17T21:45:07.076Z,21.30
2018-07-17T21:50:11.450Z,21.30
2018-07-17T21:55:15.936Z,21.40
2018-07-17T22:00:20.396Z,21.30
2018-07-17T22:05:25.037Z,21.30
2018-07-17T22:10:29.362Z,21.30
2018-07-17T22:15:33.795Z,21.30
2018-07-17T22:20:37.918Z,21.20
2018-07-17T22:25:42.372Z,21.00
2018-07-17T22:30:46.516Z,21.10
2018-07-17T22:35:51.205Z,21.20
2018-07-17T22:40:55.970Z,21.20
2018-07-17T22:46:00.162Z,21.20
2018-07-17T22:51:04.989Z,21.30
2018-07-17T22:56:10.250Z,21.20
2018-07-17T23:01:14.507Z,21.00
2018-07-17T23:06:19.423Z,21.00
2018-07-17T23:11:23.819Z,21.10
2018-07-17T23:16:28.568Z,21.10
2018-07-17T23:21:33.075Z,21.20
2018-07-17T23:26:37.723Z,21.20
2018-07-17T23:31:42.015Z,21.20
2018-07-17T23:36:46.491Z,21.10
2018-07-17T23:41:51.243Z,21.10
2018-07-17T23:46:56.140Z,21.10
2018-07-17T23:52:00.662Z,20.90
